Toledo, Iowa
Current Conditions -  °F | °C
As of 7:53 PM on Thursday 20 Nov 2014 (Local Time) from KMIW Reporting Station
Clear Clear  
Wind Chill:   Ceiling: Unl
Heat Index:   Visibility: 10mi
Dew Point:   Wind: 5mph
Humidity: 84%   Direction: 280°W
Pressure: 30.25"   Gusts: NA
Location:  42°N, 92.58°W
Report Text: KMIW 210153Z AUTO 28004KT 10SM CLR M13/M15 A3025 RMK AO2 SLP266 T11281150
Loading
Personal Weather Stations






























Interactive Weather Map New forecast layout! Learn more

10-Day Weather Forecast

Advertisements
Track Severe Weather on mobile